Time;durP1;ratioP1;P1;durP2;ratioP2;P2;SDS_P1;SDS_P2;PMS_P1;PMS_P2;Temp;Humidity;BMP_temperature;BMP_pressure;BME280_temperature;BME280_humidity;BME280_pressure;Samples;Min_cycle;Max_cycle;Signal;HPM_P1;HPM_P2
2022/01/13 00:02:28;;;;;;;15.32;4.70;;;;;;;2.45;100.00;104365.25;5076597;28;20035;-87
2022/01/13 00:04:54;;;;;;;27.45;7.32;;;;;;;2.50;100.00;104365.44;5076535;28;20054;-87
2022/01/13 00:07:19;;;;;;;18.15;5.47;;;;;;;2.48;100.00;104367.13;5078492;28;20032;-87
2022/01/13 00:09:44;;;;;;;34.83;6.18;;;;;;;2.44;100.00;104359.94;5082865;28;20079;-87
2022/01/13 00:12:12;;;;;;;13.68;4.78;;;;;;;2.41;100.00;104362.44;5112188;28;20047;-86
2022/01/13 00:14:41;;;;;;;12.68;5.05;;;;;;;2.36;100.00;104368.44;5108393;28;20458;-88
2022/01/13 00:17:24;;;;;;;11.18;4.80;;;;;;;2.36;100.00;104371.06;5092922;28;20024;-87
2022/01/13 00:20:29;;;;;;;17.30;6.15;;;;;;;2.34;100.00;104362.19;5092750;28;20063;-87
2022/01/13 00:25:03;;;;;;;13.80;5.65;;;;;;;2.36;100.00;104352.63;5113454;28;20059;-87
2022/01/13 00:27:30;;;;;;;21.75;6.25;;;;;;;2.38;100.00;104357.94;5097275;28;20030;-87
2022/01/13 00:29:59;;;;;;;19.67;5.95;;;;;;;2.40;100.00;104355.38;5112612;28;20431;-86
2022/01/13 00:32:27;;;;;;;14.68;5.22;;;;;;;2.41;100.00;104354.53;5101056;28;20023;-86
2022/01/13 00:34:53;;;;;;;30.02;8.57;;;;;;;2.40;100.00;104358.00;5076598;28;20485;-87
2022/01/13 00:37:18;;;;;;;26.38;6.72;;;;;;;2.41;100.00;104354.53;5076181;28;20020;-87
2022/01/13 00:39:43;;;;;;;48.75;9.48;;;;;;;2.40;100.00;104351.00;5075873;28;20027;-87
2022/01/13 00:42:09;;;;;;;40.55;8.88;;;;;;;2.42;100.00;104346.69;5092991;28;20103;-87
2022/01/13 00:44:37;;;;;;;26.48;7.47;;;;;;;2.44;100.00;104354.66;5076007;28;20042;-87
2022/01/13 00:47:05;;;;;;;34.47;8.52;;;;;;;2.40;100.00;104350.09;5076056;28;20042;-88
2022/01/13 00:49:30;;;;;;;24.73;8.38;;;;;;;2.43;100.00;104359.03;5076154;28;20026;-87
2022/01/13 00:51:56;;;;;;;32.83;9.65;;;;;;;2.38;100.00;104358.84;5075571;28;20095;-87
2022/01/13 00:54:22;;;;;;;26.95;7.85;;;;;;;2.37;100.00;104354.44;5093352;28;20032;-87
2022/01/13 00:56:47;;;;;;;57.50;11.80;;;;;;;2.36;100.00;104362.25;5095902;28;20084;-87
2022/01/13 00:59:14;;;;;;;37.23;10.20;;;;;;;2.36;100.00;104368.44;5092926;28;20115;-86
2022/01/13 01:01:47;;;;;;;22.83;6.60;;;;;;;2.39;100.00;104367.66;5095806;28;20292;-88
2022/01/13 01:04:13;;;;;;;19.25;6.47;;;;;;;2.41;100.00;104366.00;5106507;28;20051;-85
2022/01/13 01:06:39;;;;;;;35.17;9.33;;;;;;;2.41;100.00;104370.34;5096588;28;20030;-80
2022/01/13 01:09:06;;;;;;;27.17;8.57;;;;;;;2.39;100.00;104367.66;5091058;28;20028;-80
2022/01/13 01:11:31;;;;;;;32.30;7.72;;;;;;;2.40;100.00;104373.81;5090734;28;20474;-80
2022/01/13 01:13:58;;;;;;;32.85;7.55;;;;;;;2.41;100.00;104375.63;5091181;28;20024;-80
2022/01/13 01:16:25;;;;;;;30.13;6.75;;;;;;;2.38;100.00;104377.28;5097609;28;20035;-80
2022/01/13 01:19:02;;;;;;;24.67;6.75;;;;;;;2.41;100.00;104371.25;5109818;28;20023;-80
2022/01/13 01:24:11;;;;;;;28.00;7.78;;;;;;;2.40;100.00;104368.53;5101443;28;20028;-81
2022/01/13 01:26:42;;;;;;;20.30;6.13;;;;;;;2.38;100.00;104369.38;5056424;28;20421;-81
2022/01/13 01:29:36;;;;;;;72.55;12.05;;;;;;;2.35;100.00;104371.91;5087332;28;20030;-80
2022/01/13 01:32:08;;;;;;;31.50;8.45;;;;;;;2.41;100.00;104370.34;5091085;28;20032;-80
2022/01/13 01:37:15;;;;;;;32.38;8.40;;;;;;;2.45;100.00;104377.56;5111875;28;20100;-86
2022/01/13 01:39:41;;;;;;;41.85;9.60;;;;;;;2.45;100.00;104377.56;5112750;28;20103;-86
2022/01/13 01:42:06;;;;;;;38.75;9.43;;;;;;;2.44;100.00;104375.75;5095057;28;20474;-87
2022/01/13 01:44:36;;;;;;;61.83;13.35;;;;;;;2.42;100.00;104377.41;5081377;28;20069;-87
2022/01/13 01:47:03;;;;;;;67.03;13.30;;;;;;;2.42;100.00;104369.50;5075642;28;20068;-87
2022/01/13 01:49:31;;;;;;;49.33;11.00;;;;;;;2.48;100.00;104377.66;5075454;28;20031;-87
2022/01/13 01:51:59;;;;;;;35.28;8.48;;;;;;;2.51;100.00;104372.53;5083147;28;20046;-87
2022/01/13 01:54:25;;;;;;;31.38;8.43;;;;;;;2.53;100.00;104373.47;5091641;28;20024;-87
2022/01/13 01:56:51;;;;;;;92.82;14.50;;;;;;;2.57;100.00;104385.94;5077360;28;20496;-81
2022/01/13 01:59:19;;;;;;;73.28;13.25;;;;;;;2.60;100.00;104378.19;5110744;28;20027;-87
2022/01/13 02:01:47;;;;;;;32.08;7.07;;;;;;;2.60;100.00;104380.81;5094309;28;20030;-87
2022/01/13 02:04:13;;;;;;;66.15;13.88;;;;;;;2.68;100.00;104381.09;5092031;28;20154;-87
2022/01/13 02:06:39;;;;;;;30.60;8.77;;;;;;;2.66;100.00;104370.50;5074969;28;20027;-87
2022/01/13 02:09:05;;;;;;;;;;;;;;;2.64;100.00;104373.91;5074578;28;20035;-86
2022/01/13 02:11:36;;;;;;;104.00;14.80;;;;;;;2.66;100.00;104373.13;5074214;28;20289;-88
2022/01/13 02:14:10;;;;;;;44.75;9.52;;;;;;;2.65;100.00;104376.59;5110527;28;20031;-81
2022/01/13 02:16:43;;;;;;;35.72;7.88;;;;;;;2.68;100.00;104367.91;5105853;28;20020;-81
2022/01/13 02:19:10;;;;;;;71.25;14.20;;;;;;;2.68;100.00;104371.44;5085810;28;20111;-81
2022/01/13 02:21:35;;;;;;;;;;;;;;;2.68;100.00;104366.16;5076014;28;20533;-81
2022/01/13 02:24:00;;;;;;;33.57;7.83;;;;;;;2.67;100.00;104360.84;5073268;28;19965;-81
2022/01/13 02:26:26;;;;;;;69.93;13.38;;;;;;;2.68;100.00;104360.91;5091995;28;20020;-81
2022/01/13 02:28:54;;;;;;;124.88;18.10;;;;;;;2.68;100.00;104357.38;5074487;28;20028;-81
2022/01/13 02:31:21;;;;;;;55.22;10.88;;;;;;;2.68;100.00;104355.63;5091529;28;20518;-81
2022/01/13 02:33:46;;;;;;;38.58;8.73;;;;;;;2.69;100.00;104352.16;5085053;28;20016;-80
2022/01/13 02:36:16;;;;;;;83.28;16.25;;;;;;;2.72;100.00;104345.22;5073693;28;20049;-80
2022/01/13 02:38:41;;;;;;;88.90;13.13;;;;;;;2.72;100.00;104337.31;5093033;28;20039;-80
2022/01/13 02:41:06;;;;;;;82.45;14.85;;;;;;;2.72;100.00;104330.28;5093244;28;20362;-85
2022/01/13 02:43:33;;;;;;;76.47;10.85;;;;;;;2.74;100.00;104327.72;5110301;28;20512;-86
2022/01/13 02:46:18;;;;;;;66.45;11.43;;;;;;;2.74;100.00;104333.00;5094772;28;20028;-86
2022/01/13 02:48:43;;;;;;;94.38;11.75;;;;;;;2.76;100.00;104331.31;5098908;28;20046;-80
2022/01/13 02:51:09;;;;;;;31.95;8.57;;;;;;;2.78;100.00;104327.91;5094862;28;20486;-80
2022/01/13 02:53:34;;;;;;;81.25;14.50;;;;;;;2.75;100.00;104322.50;5079797;28;20077;-80
2022/01/13 02:56:04;;;;;;;30.80;7.00;;;;;;;2.75;100.00;104326.88;5099775;28;20032;-80
2022/01/13 02:58:32;;;;;;;55.45;11.48;;;;;;;2.75;100.00;104332.16;5077568;28;20032;-80
2022/01/13 03:00:59;;;;;;;74.97;12.43;;;;;;;2.73;100.00;104334.72;5094493;28;20023;-82
2022/01/13 03:03:24;;;;;;;41.42;8.82;;;;;;;2.74;100.00;104333.88;5093864;28;20028;-80
2022/01/13 03:05:50;;;;;;;43.25;9.38;;;;;;;2.75;100.00;104337.44;5107423;28;20545;-80
2022/01/13 03:08:15;;;;;;;80.07;13.93;;;;;;;2.74;100.00;104333.00;5090725;28;20104;-81
2022/01/13 03:10:40;;;;;;;36.50;7.70;;;;;;;2.75;100.00;104326.88;5094809;28;20055;-80
2022/01/13 03:13:07;;;;;;;41.13;9.23;;;;;;;2.75;100.00;104327.78;5109787;28;20499;-80
2022/01/13 03:15:32;;;;;;;;;;;;;;;2.75;100.00;104319.84;5097494;28;20809;-80
2022/01/13 03:17:57;;;;;;;32.10;8.43;;;;;;;2.79;100.00;104318.25;5093672;28;19943;-86
2022/01/13 03:20:22;;;;;;;41.47;9.20;;;;;;;2.77;100.00;104317.28;5092460;28;20032;-88
2022/01/13 03:22:48;;;;;;;27.85;6.70;;;;;;;2.78;100.00;104313.81;5076997;28;20070;-80
2022/01/13 03:25:15;;;;;;;74.88;12.13;;;;;;;2.80;100.00;104317.41;5076613;28;20020;-81
2022/01/13 03:27:41;;;;;;;66.65;13.23;;;;;;;2.79;100.00;104310.31;5104528;28;20065;-80
2022/01/13 03:30:09;;;;;;;49.92;9.88;;;;;;;2.82;100.00;104307.81;5096765;28;20031;-82
2022/01/13 03:32:35;;;;;;;36.47;9.05;;;;;;;2.86;100.00;104320.28;5090760;28;20469;-88
2022/01/13 03:35:01;;;;;;;;;;;;;;;2.87;100.00;104323.81;5114759;28;20212;-85
2022/01/13 03:37:27;;;;;;;34.63;7.33;;;;;;;2.84;100.00;104314.03;5097594;28;20436;-87
2022/01/13 03:39:52;;;;;;;67.93;11.48;;;;;;;2.81;100.00;104306.03;5093978;28;20027;-86
2022/01/13 03:42:17;;;;;;;39.78;8.88;;;;;;;2.83;100.00;104312.25;5076422;28;20026;-80
2022/01/13 03:44:43;;;;;;;35.83;8.25;;;;;;;2.85;100.00;104310.56;5080808;28;20030;-80
2022/01/13 03:47:10;;;;;;;84.38;14.52;;;;;;;2.82;100.00;104295.53;5096750;28;20031;-85
2022/01/13 03:49:36;;;;;;;76.68;14.00;;;;;;;2.82;100.00;104305.19;5097294;28;20051;-87
2022/01/13 03:52:24;;;;;;;51.70;9.82;;;;;;;2.89;100.00;104301.03;5093327;28;20050;-86
2022/01/13 03:55:20;;;;;;;64.80;11.20;;;;;;;2.89;100.00;104296.66;5094531;28;20031;-86
2022/01/13 03:58:23;;;;;;;56.70;9.93;;;;;;;2.88;100.00;104304.50;5106862;28;20023;-86
2022/01/13 04:01:20;;;;;;;47.42;9.35;;;;;;;2.90;100.00;104303.75;5114991;28;20531;-86
2022/01/13 04:03:46;;;;;;;54.22;11.35;;;;;;;2.91;100.00;104300.22;5113673;28;20126;-80
2022/01/13 04:06:11;;;;;;;69.38;12.50;;;;;;;2.91;100.00;104310.78;5111633;28;20027;-80
2022/01/13 04:08:37;;;;;;;97.33;17.50;;;;;;;2.89;100.00;104311.56;5095292;28;20027;-80
2022/01/13 04:11:05;;;;;;;82.53;16.90;;;;;;;2.87;100.00;104308.88;5095921;28;20274;-80
2022/01/13 04:16:09;;;;;;;122.80;18.23;;;;;;;2.93;100.00;104309.09;5092779;28;20104;-80
2022/01/13 04:18:34;;;;;;;55.40;12.70;;;;;;;2.95;100.00;104312.72;5110822;28;20513;-80
2022/01/13 04:21:01;;;;;;;86.70;15.63;;;;;;;2.93;100.00;104302.94;5105242;28;20044;-80
2022/01/13 04:23:26;;;;;;;58.95;13.80;;;;;;;2.96;100.00;104303.97;5092195;28;20292;-81
2022/01/13 04:25:51;;;;;;;124.32;20.02;;;;;;;2.95;100.00;104299.53;5095461;28;20028;-81
2022/01/13 04:28:17;;;;;;;52.53;12.40;;;;;;;2.97;100.00;104300.50;5080052;28;21304;-80
2022/01/13 04:30:48;;;;;;;44.15;11.93;;;;;;;2.97;100.00;104302.22;5092166;28;20432;-81
2022/01/13 04:33:14;;;;;;;84.75;17.60;;;;;;;2.94;100.00;104292.44;5082045;28;20036;-81
2022/01/13 04:35:41;;;;;;;60.17;13.07;;;;;;;2.94;100.00;104300.34;5075159;28;20482;-80
2022/01/13 04:38:06;;;;;;;54.35;13.88;;;;;;;2.97;100.00;104304.84;5075209;28;20077;-81
2022/01/13 04:40:32;;;;;;;56.75;12.27;;;;;;;2.98;100.00;104301.38;5074994;28;20024;-81
2022/01/13 04:42:57;;;;;;;149.15;20.67;;;;;;;2.98;100.00;104304.94;5091884;28;20078;-81
2022/01/13 04:45:24;;;;;;;64.53;11.95;;;;;;;2.97;100.00;104311.03;5100683;28;20039;-80
2022/01/13 04:47:52;;;;;;;89.10;17.27;;;;;;;2.97;100.00;104305.75;5102969;28;20055;-81
2022/01/13 04:50:18;;;;;;;113.38;19.00;;;;;;;2.99;100.00;104293.50;5075445;28;20097;-81
2022/01/13 04:52:43;;;;;;;97.97;18.92;;;;;;;3.01;100.00;104291.84;5088714;28;20121;-80
2022/01/13 04:55:11;;;;;;;67.50;15.20;;;;;;;3.01;100.00;104291.84;5113333;27;20462;-80
2022/01/13 04:57:36;;;;;;;88.40;18.30;;;;;;;3.05;100.00;104290.19;5094026;28;20432;-80
2022/01/13 05:00:07;;;;;;;47.13;12.23;;;;;;;3.06;100.00;104288.50;5087930;28;20049;-80
2022/01/13 05:02:32;;;;;;;69.63;14.63;;;;;;;3.07;100.00;104290.25;5085077;28;20394;-80
2022/01/13 05:04:58;;;;;;;56.10;13.00;;;;;;;3.06;100.00;104297.28;5093853;28;20020;-80
2022/01/13 05:07:23;;;;;;;59.60;13.60;;;;;;;3.06;100.00;104301.69;5085733;28;20032;-80
2022/01/13 05:09:49;;;;;;;54.10;12.65;;;;;;;3.05;100.00;104300.75;5088782;28;20122;-81
2022/01/13 05:12:14;;;;;;;106.00;19.83;;;;;;;3.07;100.00;104301.72;5087292;28;20020;-80
2022/01/13 05:14:40;;;;;;;39.97;12.07;;;;;;;3.06;100.00;104299.03;5091469;28;20036;-80
2022/01/13 05:17:08;;;;;;;92.05;19.50;;;;;;;3.03;100.00;104297.16;5083147;28;20027;-80
2022/01/13 05:19:39;;;;;;;39.13;9.63;;;;;;;3.03;100.00;104312.09;5094887;28;20030;-86
2022/01/13 05:24:36;;;;;;;91.50;19.25;;;;;;;3.04;100.00;104301.59;5092478;28;20031;-86
2022/01/13 05:27:02;;;;;;;62.25;14.52;;;;;;;3.08;100.00;104307.88;5083577;28;20474;-86
2022/01/13 05:29:27;;;;;;;54.92;13.57;;;;;;;3.09;100.00;104305.31;5088832;28;20489;-87
2022/01/13 05:31:52;;;;;;;59.17;13.10;;;;;;;3.11;100.00;104308.00;5112413;28;20020;-86
2022/01/13 05:34:18;;;;;;;62.87;13.83;;;;;;;3.13;100.00;104303.69;5055280;28;20107;-87
2022/01/13 05:36:44;;;;;;;63.25;16.10;;;;;;;3.16;100.00;104306.41;5110940;28;20368;-87
2022/01/13 05:39:10;;;;;;;101.68;18.38;;;;;;;3.14;100.00;104308.13;5095794;28;20032;-88
2022/01/13 05:41:36;;;;;;;76.15;16.80;;;;;;;3.15;100.00;104295.00;5084674;28;20050;-86
2022/01/13 05:44:01;;;;;;;108.57;20.48;;;;;;;3.15;100.00;104299.34;5077170;28;20447;-80
2022/01/13 05:46:26;;;;;;;63.50;15.18;;;;;;;3.16;100.00;104291.50;5094747;28;20032;-80
2022/01/13 05:48:54;;;;;;;119.97;18.73;;;;;;;3.16;100.00;104285.31;5073680;28;20043;-80
2022/01/13 05:51:19;;;;;;;101.78;19.92;;;;;;;3.17;100.00;104287.13;5104857;28;20330;-81
2022/01/13 05:53:46;;;;;;;107.13;19.40;;;;;;;3.16;100.00;104294.16;5093703;28;20031;-80
2022/01/13 05:56:12;;;;;;;119.03;21.73;;;;;;;3.16;100.00;104291.50;5080548;28;20078;-82
2022/01/13 05:58:37;;;;;;;72.63;15.70;;;;;;;3.21;100.00;104293.41;5073520;28;20546;-82
2022/01/13 06:01:02;;;;;;;124.45;21.30;;;;;;;3.18;100.00;104294.19;5076931;28;20089;-81
2022/01/13 06:03:28;;;;;;;87.93;16.60;;;;;;;3.19;100.00;104301.28;5073789;28;20093;-80
2022/01/13 06:05:53;;;;;;;81.22;16.40;;;;;;;3.20;100.00;104291.59;5075000;28;20035;-81
2022/01/13 06:08:19;;;;;;;126.38;22.00;;;;;;;3.19;100.00;104292.44;5074090;28;20032;-82
2022/01/13 06:10:46;;;;;;;116.43;21.25;;;;;;;3.18;100.00;104302.09;5098515;28;20066;-81
2022/01/13 06:13:11;;;;;;;55.40;11.48;;;;;;;3.19;100.00;104295.06;5090462;28;20493;-81
2022/01/13 06:15:37;;;;;;;131.23;22.17;;;;;;;3.19;100.00;104296.00;5083531;28;20028;-81
2022/01/13 06:18:03;;;;;;;74.10;14.20;;;;;;;3.23;100.00;104289.97;5093314;28;20028;-81
2022/01/13 06:20:28;;;;;;;88.78;15.77;;;;;;;3.25;100.00;104290.94;5080928;28;20037;-81
2022/01/13 06:22:54;;;;;;;124.70;22.10;;;;;;;3.23;100.00;104297.88;5090632;28;20031;-81
2022/01/13 06:25:19;;;;;;;147.88;22.38;;;;;;;3.22;100.00;104296.09;5073520;28;20024;-81
2022/01/13 06:27:45;;;;;;;120.75;21.00;;;;;;;3.25;100.00;104300.59;5090208;28;20028;-80
2022/01/13 06:30:14;;;;;;;71.13;14.40;;;;;;;3.30;100.00;104296.38;5091832;28;20423;-80
2022/01/13 06:32:39;;;;;;;105.53;18.60;;;;;;;3.28;100.00;104296.34;5089278;28;20377;-81
2022/01/13 06:35:05;;;;;;;126.25;22.45;;;;;;;3.27;100.00;104294.53;5074915;28;20106;-80
2022/01/13 06:37:30;;;;;;;137.00;23.88;;;;;;;3.28;100.00;104291.06;5087500;28;20539;-81
2022/01/13 06:39:56;;;;;;;110.47;20.88;;;;;;;3.28;100.00;104300.69;5091488;28;20028;-81
2022/01/13 06:42:21;;;;;;;96.40;18.40;;;;;;;3.31;100.00;104301.69;5081862;28;20032;-80
2022/01/13 06:44:47;;;;;;;152.18;21.83;;;;;;;3.32;100.00;104295.59;5073313;28;20028;-80
2022/01/13 06:47:12;;;;;;;125.35;20.35;;;;;;;3.32;100.00;104297.34;5080474;28;20075;-80
2022/01/13 06:49:39;;;;;;;132.55;21.50;;;;;;;3.31;100.00;104300.81;5096287;28;20111;-80
2022/01/13 06:52:05;;;;;;;92.18;18.38;;;;;;;3.38;100.00;104296.63;5087524;28;20020;-83
2022/01/13 06:54:31;;;;;;;;;;;;;;;3.33;100.00;104299.13;5072969;28;20367;-81
2022/01/13 06:56:57;;;;;;;127.17;17.23;;;;;;;3.36;100.00;104301.88;5073840;28;19908;-84
2022/01/13 06:59:22;;;;;;;125.13;21.60;;;;;;;3.35;100.00;104307.09;5074088;28;20114;-81
2022/01/13 07:01:48;;;;;;;167.20;22.17;;;;;;;3.32;100.00;104303.50;5088383;28;20036;-80
2022/01/13 07:04:14;;;;;;;101.40;17.05;;;;;;;3.33;100.00;104299.13;5071865;28;20020;-80
2022/01/13 07:06:41;;;;;;;155.10;22.45;;;;;;;3.35;100.00;104307.09;5072809;28;20429;-81
2022/01/13 07:09:11;;;;;;;136.70;20.58;;;;;;;3.37;100.00;104300.16;5072065;28;20409;-81
2022/01/13 07:11:37;;;;;;;72.97;14.38;;;;;;;3.41;100.00;104296.75;5072838;28;20073;-80
2022/01/13 07:14:03;;;;;;;99.15;16.58;;;;;;;3.45;100.00;104303.94;5090309;28;20024;-80
2022/01/13 07:16:28;;;;;;;117.65;20.85;;;;;;;3.43;100.00;104301.25;5088650;28;20030;-80
2022/01/13 07:18:56;;;;;;;106.55;20.10;;;;;;;3.47;100.00;104296.97;5088505;28;20503;-80
2022/01/13 07:21:24;;;;;;;159.05;23.90;;;;;;;3.48;100.00;104296.13;5088700;28;20052;-80
2022/01/13 07:23:50;;;;;;;143.48;23.55;;;;;;;3.46;100.00;104296.09;5087346;28;20024;-80
2022/01/13 07:26:16;;;;;;;95.45;17.30;;;;;;;3.47;100.00;104294.31;5076948;28;20051;-81
2022/01/13 07:28:44;;;;;;;159.10;23.10;;;;;;;3.48;100.00;104294.41;5086017;28;20051;-81
2022/01/13 07:31:10;;;;;;;70.40;14.60;;;;;;;3.51;100.00;104293.59;5086240;28;20031;-81
2022/01/13 07:33:35;;;;;;;144.88;22.10;;;;;;;3.51;100.00;104297.97;5106818;28;20381;-82
2022/01/13 07:36:00;;;;;;;93.67;17.10;;;;;;;3.51;100.00;104292.69;5094447;28;20040;-81
2022/01/13 07:38:26;;;;;;;158.77;24.17;;;;;;;3.50;100.00;104291.81;5074722;28;20368;-82
2022/01/13 07:40:51;;;;;;;145.52;22.25;;;;;;;3.49;100.00;104303.22;5092870;28;20031;-82
2022/01/13 07:43:22;;;;;;;69.57;15.55;;;;;;;3.52;100.00;104300.69;5108130;28;20037;-82
2022/01/13 07:45:51;;;;;;;104.47;17.15;;;;;;;3.52;100.00;104303.34;5113323;28;20026;-81
2022/01/13 07:48:16;;;;;;;128.38;20.77;;;;;;;3.53;100.00;104315.66;5095852;28;20031;-81
2022/01/13 07:50:43;;;;;;;137.02;22.30;;;;;;;3.52;100.00;104321.81;5113552;28;20378;-81
2022/01/13 07:53:08;;;;;;;141.52;22.38;;;;;;;3.50;100.00;104323.50;5099031;28;20086;-81
2022/01/13 07:55:33;;;;;;;133.60;20.73;;;;;;;3.49;100.00;104321.69;5093142;28;20024;-81
2022/01/13 07:57:59;;;;;;;71.53;12.98;;;;;;;3.53;100.00;104320.94;5075976;28;20026;-82
2022/01/13 08:00:24;;;;;;;91.10;16.25;;;;;;;3.51;100.00;104322.66;5075745;28;20486;-81
2022/01/13 08:02:49;;;;;;;54.30;11.90;;;;;;;3.55;100.00;104326.28;5102966;28;20095;-81
2022/01/13 08:05:15;;;;;;;72.45;13.70;;;;;;;3.59;100.00;104325.53;5095930;28;20401;-81
2022/01/13 08:07:40;;;;;;;142.32;22.33;;;;;;;3.59;100.00;104328.19;5111515;28;20233;-81
2022/01/13 08:10:06;;;;;;;99.80;18.02;;;;;;;3.57;100.00;104328.13;5095661;28;20509;-81
2022/01/13 08:12:32;;;;;;;155.63;24.17;;;;;;;3.58;100.00;104327.28;5096478;28;20023;-81
2022/01/13 08:14:57;;;;;;;131.70;22.83;;;;;;;3.58;100.00;104322.00;5084504;28;20063;-82
2022/01/13 08:20:08;;;;;;;134.70;22.25;;;;;;;3.61;100.00;104331.78;5094510;28;20113;-80
2022/01/13 08:22:34;;;;;;;110.53;18.50;;;;;;;3.59;100.00;104323.81;5089862;28;20500;-81
2022/01/13 08:25:00;;;;;;;139.32;21.92;;;;;;;3.59;100.00;104329.09;5076977;28;20051;-81
2022/01/13 08:27:25;;;;;;;72.38;14.57;;;;;;;3.63;100.00;104324.81;5107095;28;20059;-81
2022/01/13 08:29:51;;;;;;;130.30;21.05;;;;;;;3.66;100.00;104329.31;5075897;28;20023;-81
2022/01/13 08:32:18;;;;;;;;;;;;;;;3.68;100.00;104323.22;5106973;28;20363;-81
2022/01/13 08:34:44;;;;;;;116.57;19.08;;;;;;;3.66;100.00;104330.19;5100656;28;20003;-81
2022/01/13 08:37:09;;;;;;;98.00;15.98;;;;;;;3.69;100.00;104334.69;5081253;28;20020;-80
2022/01/13 08:39:40;;;;;;;109.10;20.02;;;;;;;3.72;100.00;104337.44;5092254;28;20035;-82
2022/01/13 08:42:06;;;;;;;72.28;14.85;;;;;;;3.76;100.00;104341.97;5075592;28;20020;-82
2022/01/13 08:44:31;;;;;;;111.43;20.20;;;;;;;3.74;100.00;104339.28;5086840;28;20130;-82
2022/01/13 08:46:56;;;;;;;79.90;13.87;;;;;;;3.76;100.00;104334.03;5071431;28;20086;-82
2022/01/13 08:49:22;;;;;;;75.28;12.80;;;;;;;3.79;100.00;104339.44;5075774;28;20259;-88
2022/01/13 08:51:47;;;;;;;58.20;13.23;;;;;;;3.83;100.00;104333.44;5076346;28;20453;-89
2022/01/13 08:54:12;;;;;;;137.93;20.88;;;;;;;3.82;100.00;104334.28;5076946;28;20530;-88
2022/01/13 08:56:38;;;;;;;117.38;19.92;;;;;;;3.85;100.00;104334.38;5087650;28;20032;-88
2022/01/13 08:59:07;;;;;;;74.10;15.65;;;;;;;3.86;100.00;104338.81;5076789;28;20020;-88
2022/01/13 09:01:32;;;;;;;74.60;15.25;;;;;;;3.94;100.00;104345.25;5088361;28;20022;-88
2022/01/13 09:03:58;;;;;;;72.78;15.73;;;;;;;3.98;100.00;104342.72;5087774;28;20039;-80
2022/01/13 09:06:23;;;;;;;54.28;13.70;;;;;;;4.02;100.00;104345.53;5069029;28;20020;-81
2022/01/13 09:08:49;;;;;;;49.88;11.25;;;;;;;4.00;100.00;104346.28;5076350;28;20078;-82
2022/01/13 09:11:14;;;;;;;86.90;17.55;;;;;;;3.98;100.00;104340.97;5086324;28;20019;-83
2022/01/13 09:13:40;;;;;;;92.55;18.27;;;;;;;4.01;100.00;104338.44;5059220;28;20100;-82
2022/01/13 09:16:14;;;;;;;88.47;15.98;;;;;;;4.04;100.00;104348.22;5073273;28;20020;-82
2022/01/13 09:21:21;;;;;;;46.17;9.10;;;;;;;4.11;100.00;104339.63;5088474;28;20051;-82
2022/01/13 09:23:46;;;;;;;68.90;14.60;;;;;;;4.16;100.00;104342.44;5078371;28;20024;-82
2022/01/13 09:26:12;;;;;;;66.23;13.97;;;;;;;4.21;100.00;104339.09;5073631;28;20031;-82
2022/01/13 09:28:40;;;;;;;68.37;13.20;;;;;;;4.21;100.00;104336.47;5056369;28;20332;-82
2022/01/13 09:31:06;;;;;;;57.58;11.35;;;;;;;4.24;100.00;104336.53;5060610;28;20327;-82
2022/01/13 09:33:31;;;;;;;;;;;;;;;4.32;100.00;104334.16;5067493;28;20362;-82
2022/01/13 09:35:57;;;;;;;90.37;17.60;;;;;;;4.34;100.00;104331.56;5074217;28;20406;-82
2022/01/13 09:38:23;;;;;;;54.38;10.63;;;;;;;4.32;100.00;104330.59;5057175;28;20190;-82
2022/01/13 09:40:52;;;;;;;107.53;16.80;;;;;;;4.33;100.00;104335.94;5058014;28;20123;-82
2022/01/13 09:43:21;;;;;;;65.03;12.95;;;;;;;4.33;100.00;104340.34;5075201;28;20020;-82
2022/01/13 09:45:46;;;;;;;79.72;15.80;;;;;;;4.37;100.00;104337.84;5059074;28;20044;-82
2022/01/13 09:48:12;;;;;;;58.20;12.23;;;;;;;4.38;100.00;104339.63;5067568;28;20086;-82
2022/01/13 09:50:38;;;;;;;70.80;15.63;;;;;;;4.44;100.00;104344.22;5063898;28;21217;-81
2022/01/13 09:53:04;;;;;;;62.60;13.90;;;;;;;4.48;100.00;104345.22;5080966;28;20024;-81
2022/01/13 09:55:29;;;;;;;76.35;16.17;;;;;;;4.46;100.00;104339.88;5061689;28;20470;-82
2022/01/13 09:58:00;;;;;;;80.33;15.97;;;;;;;4.47;100.00;104344.31;5062750;28;20461;-82
2022/01/13 10:00:26;;;;;;;52.13;12.30;;;;;;;4.47;100.00;104349.59;5077965;28;20344;-80
2022/01/13 10:02:52;;;;;;;65.63;13.75;;;;;;;4.49;100.00;104345.25;5057906;28;20458;-82
2022/01/13 10:05:19;;;;;;;65.60;14.18;;;;;;;4.50;100.00;104349.72;5063718;28;20143;-81
2022/01/13 10:07:47;;;;;;;68.47;16.25;;;;;;;4.53;100.00;104344.50;5067311;28;20058;-81
2022/01/13 10:10:15;;;;;;;63.15;16.55;;;;;;;4.55;100.00;104340.16;5077083;28;20466;-81
2022/01/13 10:12:43;;;;;;;61.17;14.63;;;;;;;4.57;100.00;104340.19;5071070;28;20386;-82
2022/01/13 10:17:49;;;;;;;87.35;17.45;;;;;;;4.63;100.00;104340.41;5074133;28;20043;-81
2022/01/13 10:20:17;;;;;;;92.20;19.67;;;;;;;4.66;100.00;104339.63;5074060;28;20045;-81
2022/01/13 10:22:43;;;;;;;79.90;16.85;;;;;;;4.70;100.00;104341.50;5073525;28;20051;-81
2022/01/13 10:25:24;;;;;;;80.32;19.33;;;;;;;4.75;100.00;104343.44;5083138;28;20479;-80
2022/01/13 10:27:50;;;;;;;101.82;23.70;;;;;;;4.75;100.00;104332.84;5065348;28;20085;-81
2022/01/13 10:30:16;;;;;;;102.13;22.17;;;;;;;4.74;100.00;104338.09;5064239;28;20028;-81
2022/01/13 10:32:44;;;;;;;72.18;19.42;;;;;;;4.73;100.00;104336.31;5087041;28;20036;-80
2022/01/13 10:35:15;;;;;;;66.15;18.40;;;;;;;4.79;100.00;104333.84;5061815;28;20028;-81
2022/01/13 10:37:42;;;;;;;78.63;21.42;;;;;;;4.79;100.00;104336.47;5071994;28;20059;-81
2022/01/13 10:40:24;;;;;;;72.63;18.70;;;;;;;4.80;100.00;104340.94;5108663;28;20043;-82
2022/01/13 10:45:33;;;;;;;59.90;16.52;;;;;;;4.90;100.00;104329.75;5079266;28;20087;-85
2022/01/13 10:48:19;;;;;;;62.03;18.13;;;;;;;4.89;100.00;104327.97;5085804;28;20043;-90
2022/01/13 10:50:53;;;;;;;73.40;19.40;;;;;;;4.91;100.00;104328.91;5083764;28;20021;-90
2022/01/13 10:53:26;;;;;;;65.93;18.23;;;;;;;4.93;100.00;104323.69;5090471;28;20016;-91
2022/01/13 10:56:04;;;;;;;62.08;15.32;;;;;;;4.95;100.00;104331.66;5086022;28;20105;-89
2022/01/13 10:58:35;;;;;;;91.30;23.55;;;;;;;4.97;100.00;104327.31;5073639;28;20020;-90
2022/01/13 11:01:03;;;;;;;58.78;17.85;;;;;;;5.02;100.00;104330.97;5090186;28;20024;-91
2022/01/13 11:03:30;;;;;;;65.20;17.83;;;;;;;5.01;100.00;104331.81;5066771;28;20044;-91
2022/01/13 11:06:00;;;;;;;59.72;16.55;;;;;;;5.01;100.00;104322.16;5082482;28;20536;-90
2022/01/13 11:08:26;;;;;;;71.05;21.05;;;;;;;5.05;100.00;104318.72;5084674;28;20028;-89
2022/01/13 11:10:53;;;;;;;54.03;16.35;;;;;;;5.05;100.00;104312.56;5077931;28;20020;-90
2022/01/13 11:13:20;;;;;;;58.83;17.00;;;;;;;5.07;100.00;104311.75;5074549;28;20048;-92
2022/01/13 11:15:51;;;;;;;73.00;23.65;;;;;;;5.13;100.00;104310.13;5066443;28;20463;-91
2022/01/13 11:18:19;;;;;;;50.72;17.20;;;;;;;5.17;100.00;104310.25;5071786;28;20030;-91
2022/01/13 11:20:45;;;;;;;51.22;17.15;;;;;;;5.20;100.00;104305.06;5072685;28;20117;-90
2022/01/13 11:23:11;;;;;;;76.35;23.15;;;;;;;5.18;100.00;104309.41;5072103;28;20475;-91
2022/01/13 11:25:37;;;;;;;67.25;20.40;;;;;;;5.18;100.00;104308.47;5070519;28;20107;-91
2022/01/13 11:28:03;;;;;;;50.65;15.68;;;;;;;5.22;100.00;104308.63;5088923;28;20023;-90
2022/01/13 11:30:29;;;;;;;48.42;17.23;;;;;;;5.24;100.00;104303.38;5061186;28;20106;-90
2022/01/13 11:32:56;;;;;;;44.63;16.05;;;;;;;5.29;100.00;104314.09;5073660;28;20425;-83
2022/01/13 11:35:27;;;;;;;36.85;13.32;;;;;;;5.29;100.00;104307.03;5084419;28;20113;-84
2022/01/13 11:37:53;;;;;;;57.60;21.88;;;;;;;5.29;100.00;104309.69;5086037;28;20039;-84